sensor_id;sensor_type;location;lat;lon;timestamp;P1;durP1;ratioP1;P2;durP2;ratioP2
4047;SDS011;2038;51.728;6.674;2023-04-25T00:00:28;12.50;;;7.43;;
4047;SDS011;2038;51.728;6.674;2023-04-25T00:02:54;20.00;;;7.80;;
4047;SDS011;2038;51.728;6.674;2023-04-25T00:05:21;19.40;;;7.63;;
4047;SDS011;2038;51.728;6.674;2023-04-25T00:07:49;13.03;;;6.50;;
4047;SDS011;2038;51.728;6.674;2023-04-25T00:10:15;14.57;;;6.80;;
4047;SDS011;2038;51.728;6.674;2023-04-25T00:12:42;16.43;;;6.37;;
4047;SDS011;2038;51.728;6.674;2023-04-25T00:15:08;16.23;;;7.73;;
4047;SDS011;2038;51.728;6.674;2023-04-25T00:17:35;10.50;;;6.53;;
4047;SDS011;2038;51.728;6.674;2023-04-25T00:20:03;12.30;;;6.03;;
4047;SDS011;2038;51.728;6.674;2023-04-25T00:22:31;7.60;;;5.33;;
4047;SDS011;2038;51.728;6.674;2023-04-25T00:24:59;13.97;;;7.03;;
4047;SDS011;2038;51.728;6.674;2023-04-25T00:27:25;13.00;;;6.03;;
4047;SDS011;2038;51.728;6.674;2023-04-25T00:29:52;10.93;;;5.67;;
4047;SDS011;2038;51.728;6.674;2023-04-25T00:32:18;15.63;;;6.33;;
4047;SDS011;2038;51.728;6.674;2023-04-25T00:34:44;12.23;;;5.40;;
4047;SDS011;2038;51.728;6.674;2023-04-25T00:37:10;4.67;;;4.17;;
4047;SDS011;2038;51.728;6.674;2023-04-25T00:39:37;5.87;;;4.73;;
4047;SDS011;2038;51.728;6.674;2023-04-25T00:42:03;13.20;;;5.87;;
4047;SDS011;2038;51.728;6.674;2023-04-25T00:44:31;15.07;;;6.63;;
4047;SDS011;2038;51.728;6.674;2023-04-25T00:46:58;13.50;;;6.37;;
4047;SDS011;2038;51.728;6.674;2023-04-25T00:49:27;8.23;;;5.10;;
4047;SDS011;2038;51.728;6.674;2023-04-25T00:51:53;12.37;;;5.93;;
4047;SDS011;2038;51.728;6.674;2023-04-25T00:54:21;8.63;;;4.93;;
4047;SDS011;2038;51.728;6.674;2023-04-25T00:56:47;12.93;;;5.93;;
4047;SDS011;2038;51.728;6.674;2023-04-25T00:59:14;16.23;;;6.50;;
4047;SDS011;2038;51.728;6.674;2023-04-25T01:01:40;12.83;;;6.23;;
4047;SDS011;2038;51.728;6.674;2023-04-25T01:04:07;11.90;;;6.03;;
4047;SDS011;2038;51.728;6.674;2023-04-25T01:06:33;17.57;;;8.23;;
4047;SDS011;2038;51.728;6.674;2023-04-25T01:09:00;10.27;;;7.13;;
4047;SDS011;2038;51.728;6.674;2023-04-25T01:11:28;13.00;;;6.90;;
4047;SDS011;2038;51.728;6.674;2023-04-25T01:13:54;18.97;;;7.20;;
4047;SDS011;2038;51.728;6.674;2023-04-25T01:16:20;16.73;;;7.10;;
4047;SDS011;2038;51.728;6.674;2023-04-25T01:18:48;19.17;;;7.83;;
4047;SDS011;2038;51.728;6.674;2023-04-25T01:21:16;19.17;;;9.33;;
4047;SDS011;2038;51.728;6.674;2023-04-25T01:23:42;12.13;;;8.07;;
4047;SDS011;2038;51.728;6.674;2023-04-25T01:26:09;22.40;;;7.90;;
4047;SDS011;2038;51.728;6.674;2023-04-25T01:28:37;16.47;;;7.13;;
4047;SDS011;2038;51.728;6.674;2023-04-25T01:31:08;18.87;;;7.93;;
4047;SDS011;2038;51.728;6.674;2023-04-25T01:33:36;17.83;;;7.70;;
4047;SDS011;2038;51.728;6.674;2023-04-25T01:36:02;26.30;;;9.53;;
4047;SDS011;2038;51.728;6.674;2023-04-25T01:38:29;14.17;;;8.30;;
4047;SDS011;2038;51.728;6.674;2023-04-25T01:40:56;16.77;;;7.20;;
4047;SDS011;2038;51.728;6.674;2023-04-25T01:43:22;19.00;;;7.13;;
4047;SDS011;2038;51.728;6.674;2023-04-25T01:45:49;14.33;;;8.20;;
4047;SDS011;2038;51.728;6.674;2023-04-25T01:48:16;13.20;;;7.67;;
4047;SDS011;2038;51.728;6.674;2023-04-25T01:50:42;14.27;;;8.13;;
4047;SDS011;2038;51.728;6.674;2023-04-25T01:53:09;19.40;;;9.07;;
4047;SDS011;2038;51.728;6.674;2023-04-25T01:55:38;14.67;;;9.07;;
4047;SDS011;2038;51.728;6.674;2023-04-25T01:58:04;23.03;;;8.50;;
4047;SDS011;2038;51.728;6.674;2023-04-25T02:00:34;15.63;;;8.87;;
4047;SDS011;2038;51.728;6.674;2023-04-25T02:03:03;16.70;;;8.83;;
4047;SDS011;2038;51.728;6.674;2023-04-25T02:05:36;26.30;;;9.37;;
4047;SDS011;2038;51.728;6.674;2023-04-25T02:08:04;16.20;;;8.40;;
4047;SDS011;2038;51.728;6.674;2023-04-25T02:10:33;14.83;;;7.37;;
4047;SDS011;2038;51.728;6.674;2023-04-25T02:13:00;19.17;;;8.83;;
4047;SDS011;2038;51.728;6.674;2023-04-25T02:15:27;20.73;;;8.30;;
4047;SDS011;2038;51.728;6.674;2023-04-25T02:17:54;17.90;;;9.17;;
4047;SDS011;2038;51.728;6.674;2023-04-25T02:20:20;14.00;;;7.80;;
4047;SDS011;2038;51.728;6.674;2023-04-25T02:22:48;11.97;;;7.97;;
4047;SDS011;2038;51.728;6.674;2023-04-25T02:25:14;15.07;;;7.97;;
4047;SDS011;2038;51.728;6.674;2023-04-25T02:27:41;14.90;;;7.17;;
4047;SDS011;2038;51.728;6.674;2023-04-25T02:30:08;14.17;;;7.50;;
4047;SDS011;2038;51.728;6.674;2023-04-25T02:32:34;14.27;;;8.40;;
4047;SDS011;2038;51.728;6.674;2023-04-25T02:35:01;12.93;;;6.00;;
4047;SDS011;2038;51.728;6.674;2023-04-25T02:37:32;19.10;;;8.17;;
4047;SDS011;2038;51.728;6.674;2023-04-25T02:40:00;19.97;;;7.60;;
4047;SDS011;2038;51.728;6.674;2023-04-25T02:42:28;17.93;;;7.33;;
4047;SDS011;2038;51.728;6.674;2023-04-25T02:44:53;12.83;;;7.10;;
4047;SDS011;2038;51.728;6.674;2023-04-25T02:47:20;13.00;;;8.20;;
4047;SDS011;2038;51.728;6.674;2023-04-25T02:49:46;12.63;;;8.00;;
4047;SDS011;2038;51.728;6.674;2023-04-25T02:52:12;18.20;;;6.90;;
4047;SDS011;2038;51.728;6.674;2023-04-25T02:54:39;16.10;;;7.00;;
4047;SDS011;2038;51.728;6.674;2023-04-25T02:57:06;22.00;;;7.60;;
4047;SDS011;2038;51.728;6.674;2023-04-25T02:59:33;22.87;;;8.00;;
4047;SDS011;2038;51.728;6.674;2023-04-25T03:01:59;13.50;;;8.00;;
4047;SDS011;2038;51.728;6.674;2023-04-25T03:04:26;12.43;;;7.13;;
4047;SDS011;2038;51.728;6.674;2023-04-25T03:06:52;20.73;;;8.80;;
4047;SDS011;2038;51.728;6.674;2023-04-25T03:09:19;19.57;;;6.20;;
4047;SDS011;2038;51.728;6.674;2023-04-25T03:11:45;13.13;;;7.20;;
4047;SDS011;2038;51.728;6.674;2023-04-25T03:14:12;17.60;;;6.97;;
4047;SDS011;2038;51.728;6.674;2023-04-25T03:16:38;24.10;;;8.33;;
4047;SDS011;2038;51.728;6.674;2023-04-25T03:19:05;24.67;;;6.50;;
4047;SDS011;2038;51.728;6.674;2023-04-25T03:21:32;21.53;;;7.90;;
4047;SDS011;2038;51.728;6.674;2023-04-25T03:24:01;16.03;;;7.20;;
4047;SDS011;2038;51.728;6.674;2023-04-25T03:26:29;14.50;;;7.77;;
4047;SDS011;2038;51.728;6.674;2023-04-25T03:28:56;11.73;;;6.43;;
4047;SDS011;2038;51.728;6.674;2023-04-25T03:31:22;16.43;;;7.00;;
4047;SDS011;2038;51.728;6.674;2023-04-25T03:33:48;15.43;;;7.97;;
4047;SDS011;2038;51.728;6.674;2023-04-25T03:36:14;13.97;;;6.97;;
4047;SDS011;2038;51.728;6.674;2023-04-25T03:38:40;24.57;;;7.60;;
4047;SDS011;2038;51.728;6.674;2023-04-25T03:41:07;13.23;;;6.30;;
4047;SDS011;2038;51.728;6.674;2023-04-25T03:43:33;20.43;;;7.90;;
4047;SDS011;2038;51.728;6.674;2023-04-25T03:45:59;17.97;;;7.37;;
4047;SDS011;2038;51.728;6.674;2023-04-25T03:48:26;17.57;;;8.00;;
4047;SDS011;2038;51.728;6.674;2023-04-25T03:50:52;18.70;;;7.70;;
4047;SDS011;2038;51.728;6.674;2023-04-25T03:53:19;17.13;;;8.10;;
4047;SDS011;2038;51.728;6.674;2023-04-25T03:55:45;21.83;;;9.30;;
4047;SDS011;2038;51.728;6.674;2023-04-25T03:58:12;18.87;;;8.33;;
4047;SDS011;2038;51.728;6.674;2023-04-25T04:00:37;22.80;;;8.17;;
4047;SDS011;2038;51.728;6.674;2023-04-25T04:03:03;21.30;;;8.20;;
4047;SDS011;2038;51.728;6.674;2023-04-25T04:05:30;23.57;;;7.43;;
4047;SDS011;2038;51.728;6.674;2023-04-25T04:07:56;12.50;;;7.70;;
4047;SDS011;2038;51.728;6.674;2023-04-25T04:10:22;18.60;;;8.97;;
4047;SDS011;2038;51.728;6.674;2023-04-25T04:12:48;15.30;;;7.80;;
4047;SDS011;2038;51.728;6.674;2023-04-25T04:15:14;15.17;;;8.00;;
4047;SDS011;2038;51.728;6.674;2023-04-25T04:17:39;17.83;;;8.10;;
4047;SDS011;2038;51.728;6.674;2023-04-25T04:20:06;28.50;;;10.33;;
4047;SDS011;2038;51.728;6.674;2023-04-25T04:22:33;17.50;;;8.37;;
4047;SDS011;2038;51.728;6.674;2023-04-25T04:25:00;17.60;;;7.00;;
4047;SDS011;2038;51.728;6.674;2023-04-25T04:27:27;14.20;;;7.90;;
4047;SDS011;2038;51.728;6.674;2023-04-25T04:29:54;14.23;;;7.30;;
4047;SDS011;2038;51.728;6.674;2023-04-25T04:32:21;19.63;;;8.10;;
4047;SDS011;2038;51.728;6.674;2023-04-25T04:34:48;19.77;;;9.23;;
4047;SDS011;2038;51.728;6.674;2023-04-25T04:37:14;17.20;;;7.17;;
4047;SDS011;2038;51.728;6.674;2023-04-25T04:39:40;15.50;;;7.70;;
4047;SDS011;2038;51.728;6.674;2023-04-25T04:42:06;16.87;;;8.37;;
4047;SDS011;2038;51.728;6.674;2023-04-25T04:44:33;18.53;;;9.00;;
4047;SDS011;2038;51.728;6.674;2023-04-25T04:47:00;24.50;;;8.60;;
4047;SDS011;2038;51.728;6.674;2023-04-25T04:49:26;17.90;;;8.50;;
4047;SDS011;2038;51.728;6.674;2023-04-25T04:51:52;18.23;;;9.23;;
4047;SDS011;2038;51.728;6.674;2023-04-25T04:54:19;12.87;;;9.10;;
4047;SDS011;2038;51.728;6.674;2023-04-25T04:56:45;18.70;;;8.90;;
4047;SDS011;2038;51.728;6.674;2023-04-25T04:59:11;20.07;;;7.53;;
4047;SDS011;2038;51.728;6.674;2023-04-25T05:01:37;17.00;;;7.63;;
4047;SDS011;2038;51.728;6.674;2023-04-25T05:04:03;21.17;;;9.47;;
4047;SDS011;2038;51.728;6.674;2023-04-25T05:06:30;15.07;;;7.50;;
4047;SDS011;2038;51.728;6.674;2023-04-25T05:08:56;27.83;;;9.87;;
4047;SDS011;2038;51.728;6.674;2023-04-25T05:11:24;21.77;;;9.50;;
4047;SDS011;2038;51.728;6.674;2023-04-25T05:13:53;20.20;;;9.40;;
4047;SDS011;2038;51.728;6.674;2023-04-25T05:16:19;17.60;;;9.37;;
4047;SDS011;2038;51.728;6.674;2023-04-25T05:18:46;21.47;;;9.50;;
4047;SDS011;2038;51.728;6.674;2023-04-25T05:21:13;16.60;;;8.57;;
4047;SDS011;2038;51.728;6.674;2023-04-25T05:23:39;20.73;;;10.20;;
4047;SDS011;2038;51.728;6.674;2023-04-25T05:26:05;27.20;;;10.60;;
4047;SDS011;2038;51.728;6.674;2023-04-25T05:28:38;28.37;;;10.03;;
4047;SDS011;2038;51.728;6.674;2023-04-25T05:31:06;20.90;;;10.50;;
4047;SDS011;2038;51.728;6.674;2023-04-25T05:33:32;17.90;;;9.20;;
4047;SDS011;2038;51.728;6.674;2023-04-25T05:35:58;17.93;;;8.87;;
4047;SDS011;2038;51.728;6.674;2023-04-25T05:38:24;29.13;;;8.67;;
4047;SDS011;2038;51.728;6.674;2023-04-25T05:40:49;18.20;;;8.13;;
4047;SDS011;2038;51.728;6.674;2023-04-25T05:43:15;23.23;;;8.57;;
4047;SDS011;2038;51.728;6.674;2023-04-25T05:45:41;9.90;;;6.70;;
4047;SDS011;2038;51.728;6.674;2023-04-25T05:48:07;14.30;;;6.87;;
4047;SDS011;2038;51.728;6.674;2023-04-25T05:50:33;9.30;;;6.43;;
4047;SDS011;2038;51.728;6.674;2023-04-25T05:52:58;18.90;;;7.77;;
4047;SDS011;2038;51.728;6.674;2023-04-25T05:55:24;12.97;;;7.23;;
4047;SDS011;2038;51.728;6.674;2023-04-25T05:57:50;17.07;;;6.20;;
4047;SDS011;2038;51.728;6.674;2023-04-25T06:00:16;25.70;;;7.10;;
4047;SDS011;2038;51.728;6.674;2023-04-25T06:02:43;19.70;;;6.90;;
4047;SDS011;2038;51.728;6.674;2023-04-25T06:05:09;11.47;;;6.57;;
4047;SDS011;2038;51.728;6.674;2023-04-25T06:07:35;13.93;;;7.53;;
4047;SDS011;2038;51.728;6.674;2023-04-25T06:10:01;17.07;;;7.37;;
4047;SDS011;2038;51.728;6.674;2023-04-25T06:12:28;14.00;;;7.27;;
4047;SDS011;2038;51.728;6.674;2023-04-25T06:14:54;30.53;;;7.97;;
4047;SDS011;2038;51.728;6.674;2023-04-25T06:17:20;14.17;;;7.33;;
4047;SDS011;2038;51.728;6.674;2023-04-25T06:19:47;14.80;;;5.80;;
4047;SDS011;2038;51.728;6.674;2023-04-25T06:22:13;16.40;;;6.40;;
4047;SDS011;2038;51.728;6.674;2023-04-25T06:24:39;13.77;;;5.60;;
4047;SDS011;2038;51.728;6.674;2023-04-25T06:27:05;18.07;;;6.07;;
4047;SDS011;2038;51.728;6.674;2023-04-25T06:29:32;14.67;;;6.13;;
4047;SDS011;2038;51.728;6.674;2023-04-25T06:31:58;18.60;;;5.60;;
4047;SDS011;2038;51.728;6.674;2023-04-25T06:34:24;21.43;;;5.90;;
4047;SDS011;2038;51.728;6.674;2023-04-25T06:36:50;11.87;;;7.37;;
4047;SDS011;2038;51.728;6.674;2023-04-25T06:39:17;13.53;;;6.63;;
4047;SDS011;2038;51.728;6.674;2023-04-25T06:41:44;13.63;;;6.30;;
4047;SDS011;2038;51.728;6.674;2023-04-25T06:44:11;27.27;;;8.43;;
4047;SDS011;2038;51.728;6.674;2023-04-25T06:46:37;18.40;;;6.00;;
4047;SDS011;2038;51.728;6.674;2023-04-25T06:49:04;17.77;;;7.63;;
4047;SDS011;2038;51.728;6.674;2023-04-25T06:51:30;25.83;;;7.63;;
4047;SDS011;2038;51.728;6.674;2023-04-25T06:53:56;13.87;;;6.77;;
4047;SDS011;2038;51.728;6.674;2023-04-25T06:56:22;16.63;;;6.60;;
4047;SDS011;2038;51.728;6.674;2023-04-25T06:58:49;13.23;;;6.40;;
4047;SDS011;2038;51.728;6.674;2023-04-25T07:01:15;10.07;;;6.30;;
4047;SDS011;2038;51.728;6.674;2023-04-25T07:03:41;19.33;;;7.70;;
4047;SDS011;2038;51.728;6.674;2023-04-25T07:06:08;20.13;;;6.10;;
4047;SDS011;2038;51.728;6.674;2023-04-25T07:08:34;14.57;;;5.30;;
4047;SDS011;2038;51.728;6.674;2023-04-25T07:11:00;18.83;;;5.13;;
4047;SDS011;2038;51.728;6.674;2023-04-25T07:13:26;12.10;;;5.47;;
4047;SDS011;2038;51.728;6.674;2023-04-25T07:15:53;8.30;;;4.63;;
4047;SDS011;2038;51.728;6.674;2023-04-25T07:18:19;11.30;;;4.60;;
4047;SDS011;2038;51.728;6.674;2023-04-25T07:20:46;15.47;;;4.83;;
4047;SDS011;2038;51.728;6.674;2023-04-25T07:23:12;13.93;;;5.00;;
4047;SDS011;2038;51.728;6.674;2023-04-25T07:25:38;13.93;;;5.53;;
4047;SDS011;2038;51.728;6.674;2023-04-25T07:28:04;14.17;;;4.73;;
4047;SDS011;2038;51.728;6.674;2023-04-25T07:30:31;10.20;;;4.70;;
4047;SDS011;2038;51.728;6.674;2023-04-25T07:32:57;11.53;;;5.00;;
4047;SDS011;2038;51.728;6.674;2023-04-25T07:35:23;9.03;;;5.67;;
4047;SDS011;2038;51.728;6.674;2023-04-25T07:37:49;15.77;;;4.73;;
4047;SDS011;2038;51.728;6.674;2023-04-25T07:40:16;9.73;;;4.20;;
4047;SDS011;2038;51.728;6.674;2023-04-25T07:42:42;14.20;;;3.73;;
4047;SDS011;2038;51.728;6.674;2023-04-25T07:45:08;9.27;;;3.90;;
4047;SDS011;2038;51.728;6.674;2023-04-25T07:47:35;10.03;;;4.47;;
4047;SDS011;2038;51.728;6.674;2023-04-25T07:50:01;9.53;;;4.60;;
4047;SDS011;2038;51.728;6.674;2023-04-25T07:52:28;11.97;;;4.70;;
4047;SDS011;2038;51.728;6.674;2023-04-25T07:54:54;6.07;;;4.20;;
4047;SDS011;2038;51.728;6.674;2023-04-25T07:57:21;9.87;;;4.50;;
4047;SDS011;2038;51.728;6.674;2023-04-25T07:59:49;14.27;;;4.67;;
4047;SDS011;2038;51.728;6.674;2023-04-25T08:02:15;9.00;;;4.73;;
4047;SDS011;2038;51.728;6.674;2023-04-25T08:04:41;9.43;;;4.17;;
4047;SDS011;2038;51.728;6.674;2023-04-25T08:07:07;12.43;;;3.77;;
4047;SDS011;2038;51.728;6.674;2023-04-25T08:09:34;21.50;;;4.07;;
4047;SDS011;2038;51.728;6.674;2023-04-25T08:12:01;15.03;;;4.70;;
4047;SDS011;2038;51.728;6.674;2023-04-25T08:14:29;6.77;;;3.40;;
4047;SDS011;2038;51.728;6.674;2023-04-25T08:17:00;9.53;;;3.30;;
4047;SDS011;2038;51.728;6.674;2023-04-25T08:19:28;10.97;;;3.13;;
4047;SDS011;2038;51.728;6.674;2023-04-25T08:21:55;10.13;;;3.20;;
4047;SDS011;2038;51.728;6.674;2023-04-25T08:24:22;7.00;;;2.40;;
4047;SDS011;2038;51.728;6.674;2023-04-25T08:26:48;17.17;;;3.80;;
4047;SDS011;2038;51.728;6.674;2023-04-25T08:29:15;6.93;;;3.47;;
4047;SDS011;2038;51.728;6.674;2023-04-25T08:31:41;10.63;;;2.90;;
4047;SDS011;2038;51.728;6.674;2023-04-25T08:34:07;7.33;;;3.00;;
4047;SDS011;2038;51.728;6.674;2023-04-25T08:36:34;9.57;;;3.37;;
4047;SDS011;2038;51.728;6.674;2023-04-25T08:39:00;6.40;;;2.60;;
4047;SDS011;2038;51.728;6.674;2023-04-25T08:41:27;13.50;;;3.13;;
4047;SDS011;2038;51.728;6.674;2023-04-25T08:43:53;15.73;;;4.00;;
4047;SDS011;2038;51.728;6.674;2023-04-25T08:46:25;13.83;;;3.60;;
4047;SDS011;2038;51.728;6.674;2023-04-25T08:48:52;8.60;;;3.47;;
4047;SDS011;2038;51.728;6.674;2023-04-25T08:51:25;14.30;;;3.17;;
4047;SDS011;2038;51.728;6.674;2023-04-25T08:53:56;7.20;;;3.60;;
4047;SDS011;2038;51.728;6.674;2023-04-25T08:56:36;11.37;;;2.97;;
4047;SDS011;2038;51.728;6.674;2023-04-25T08:59:22;10.07;;;3.70;;
4047;SDS011;2038;51.728;6.674;2023-04-25T09:01:49;10.30;;;2.90;;
4047;SDS011;2038;51.728;6.674;2023-04-25T09:04:16;9.53;;;2.47;;
4047;SDS011;2038;51.728;6.674;2023-04-25T09:06:45;10.30;;;3.63;;
4047;SDS011;2038;51.728;6.674;2023-04-25T09:09:12;7.37;;;2.70;;
4047;SDS011;2038;51.728;6.674;2023-04-25T09:11:38;10.97;;;2.87;;
4047;SDS011;2038;51.728;6.674;2023-04-25T09:14:20;10.70;;;3.83;;
4047;SDS011;2038;51.728;6.674;2023-04-25T09:16:57;12.80;;;3.07;;
4047;SDS011;2038;51.728;6.674;2023-04-25T09:19:32;5.13;;;2.90;;
4047;SDS011;2038;51.728;6.674;2023-04-25T09:22:04;11.13;;;3.20;;
4047;SDS011;2038;51.728;6.674;2023-04-25T09:27:06;7.03;;;2.60;;
4047;SDS011;2038;51.728;6.674;2023-04-25T09:29:35;10.83;;;2.33;;
4047;SDS011;2038;51.728;6.674;2023-04-25T09:32:17;9.83;;;2.83;;
4047;SDS011;2038;51.728;6.674;2023-04-25T09:34:46;10.37;;;2.70;;
4047;SDS011;2038;51.728;6.674;2023-04-25T09:37:22;12.40;;;2.97;;
4047;SDS011;2038;51.728;6.674;2023-04-25T09:39:52;9.17;;;2.60;;
4047;SDS011;2038;51.728;6.674;2023-04-25T09:42:30;8.43;;;2.83;;
4047;SDS011;2038;51.728;6.674;2023-04-25T09:44:59;8.27;;;3.57;;
4047;SDS011;2038;51.728;6.674;2023-04-25T09:47:28;5.70;;;2.43;;
4047;SDS011;2038;51.728;6.674;2023-04-25T09:49:55;5.30;;;3.03;;
4047;SDS011;2038;51.728;6.674;2023-04-25T09:52:22;5.17;;;2.93;;
4047;SDS011;2038;51.728;6.674;2023-04-25T09:54:50;4.30;;;2.27;;
4047;SDS011;2038;51.728;6.674;2023-04-25T09:57:21;2.70;;;1.87;;
4047;SDS011;2038;51.728;6.674;2023-04-25T09:59:52;3.83;;;2.10;;
4047;SDS011;2038;51.728;6.674;2023-04-25T10:02:24;5.03;;;2.00;;
4047;SDS011;2038;51.728;6.674;2023-04-25T10:04:52;5.87;;;2.43;;
4047;SDS011;2038;51.728;6.674;2023-04-25T10:07:24;7.77;;;1.90;;
4047;SDS011;2038;51.728;6.674;2023-04-25T10:09:58;4.20;;;2.20;;
4047;SDS011;2038;51.728;6.674;2023-04-25T10:12:28;2.00;;;1.80;;
4047;SDS011;2038;51.728;6.674;2023-04-25T10:14:58;3.77;;;1.77;;
4047;SDS011;2038;51.728;6.674;2023-04-25T10:17:26;2.13;;;1.93;;
4047;SDS011;2038;51.728;6.674;2023-04-25T10:19:53;3.00;;;2.30;;
4047;SDS011;2038;51.728;6.674;2023-04-25T10:22:23;3.20;;;1.87;;
4047;SDS011;2038;51.728;6.674;2023-04-25T10:24:59;4.23;;;1.97;;
4047;SDS011;2038;51.728;6.674;2023-04-25T10:27:28;7.13;;;2.53;;
4047;SDS011;2038;51.728;6.674;2023-04-25T10:30:03;9.33;;;2.23;;
4047;SDS011;2038;51.728;6.674;2023-04-25T10:32:37;5.13;;;1.97;;
4047;SDS011;2038;51.728;6.674;2023-04-25T10:35:13;5.40;;;2.03;;
4047;SDS011;2038;51.728;6.674;2023-04-25T10:37:57;4.33;;;2.30;;
4047;SDS011;2038;51.728;6.674;2023-04-25T10:40:31;6.43;;;2.87;;
4047;SDS011;2038;51.728;6.674;2023-04-25T10:46:13;4.17;;;2.10;;
4047;SDS011;2038;51.728;6.674;2023-04-25T10:48:56;6.60;;;2.03;;
4047;SDS011;2038;51.728;6.674;2023-04-25T10:51:25;7.03;;;1.90;;
4047;SDS011;2038;51.728;6.674;2023-04-25T10:56:23;8.00;;;1.93;;
4047;SDS011;2038;51.728;6.674;2023-04-25T11:01:51;7.90;;;2.67;;
4047;SDS011;2038;51.728;6.674;2023-04-25T11:10:02;6.70;;;1.83;;
4047;SDS011;2038;51.728;6.674;2023-04-25T11:12:30;8.13;;;1.90;;
4047;SDS011;2038;51.728;6.674;2023-04-25T11:15:04;12.90;;;2.93;;
4047;SDS011;2038;51.728;6.674;2023-04-25T11:17:32;11.20;;;2.67;;
4047;SDS011;2038;51.728;6.674;2023-04-25T11:19:59;6.70;;;2.10;;
4047;SDS011;2038;51.728;6.674;2023-04-25T11:22:27;6.60;;;2.60;;
4047;SDS011;2038;51.728;6.674;2023-04-25T11:24:54;4.30;;;2.17;;
4047;SDS011;2038;51.728;6.674;2023-04-25T11:27:21;4.60;;;1.87;;
4047;SDS011;2038;51.728;6.674;2023-04-25T11:29:49;1.63;;;1.30;;
4047;SDS011;2038;51.728;6.674;2023-04-25T11:32:15;3.90;;;1.60;;
4047;SDS011;2038;51.728;6.674;2023-04-25T11:34:43;4.97;;;1.87;;
4047;SDS011;2038;51.728;6.674;2023-04-25T11:37:10;3.20;;;2.10;;
4047;SDS011;2038;51.728;6.674;2023-04-25T11:39:37;5.17;;;2.17;;
4047;SDS011;2038;51.728;6.674;2023-04-25T11:42:08;9.60;;;2.53;;
4047;SDS011;2038;51.728;6.674;2023-04-25T11:44:34;7.70;;;2.93;;
4047;SDS011;2038;51.728;6.674;2023-04-25T11:47:03;5.27;;;3.10;;
4047;SDS011;2038;51.728;6.674;2023-04-25T11:49:30;4.03;;;2.10;;
4047;SDS011;2038;51.728;6.674;2023-04-25T11:51:57;5.67;;;2.90;;
4047;SDS011;2038;51.728;6.674;2023-04-25T11:54:23;2.70;;;1.87;;
4047;SDS011;2038;51.728;6.674;2023-04-25T11:56:50;4.73;;;2.33;;
4047;SDS011;2038;51.728;6.674;2023-04-25T11:59:16;6.80;;;2.20;;
4047;SDS011;2038;51.728;6.674;2023-04-25T12:01:49;6.10;;;2.23;;
4047;SDS011;2038;51.728;6.674;2023-04-25T12:04:17;5.97;;;2.83;;
4047;SDS011;2038;51.728;6.674;2023-04-25T12:06:49;3.63;;;2.20;;
4047;SDS011;2038;51.728;6.674;2023-04-25T12:09:28;7.57;;;2.60;;
4047;SDS011;2038;51.728;6.674;2023-04-25T12:11:57;9.83;;;2.27;;
4047;SDS011;2038;51.728;6.674;2023-04-25T12:14:29;5.20;;;1.93;;
4047;SDS011;2038;51.728;6.674;2023-04-25T12:16:58;4.03;;;2.00;;
4047;SDS011;2038;51.728;6.674;2023-04-25T12:19:34;5.60;;;2.40;;
4047;SDS011;2038;51.728;6.674;2023-04-25T12:22:10;6.40;;;2.13;;
4047;SDS011;2038;51.728;6.674;2023-04-25T12:24:46;2.90;;;1.90;;
4047;SDS011;2038;51.728;6.674;2023-04-25T12:27:14;6.50;;;1.93;;
4047;SDS011;2038;51.728;6.674;2023-04-25T12:29:49;5.30;;;2.00;;
4047;SDS011;2038;51.728;6.674;2023-04-25T12:32:18;5.60;;;2.57;;
4047;SDS011;2038;51.728;6.674;2023-04-25T12:34:44;5.40;;;2.60;;
4047;SDS011;2038;51.728;6.674;2023-04-25T12:37:11;4.63;;;1.93;;
4047;SDS011;2038;51.728;6.674;2023-04-25T12:39:38;2.23;;;2.03;;
4047;SDS011;2038;51.728;6.674;2023-04-25T12:42:04;4.83;;;2.60;;
4047;SDS011;2038;51.728;6.674;2023-04-25T12:44:32;5.83;;;1.87;;
4047;SDS011;2038;51.728;6.674;2023-04-25T12:46:59;5.27;;;1.60;;
4047;SDS011;2038;51.728;6.674;2023-04-25T12:49:26;8.27;;;1.87;;
4047;SDS011;2038;51.728;6.674;2023-04-25T12:51:52;3.23;;;1.87;;
4047;SDS011;2038;51.728;6.674;2023-04-25T12:54:18;3.73;;;1.80;;
4047;SDS011;2038;51.728;6.674;2023-04-25T12:56:44;2.40;;;1.70;;
4047;SDS011;2038;51.728;6.674;2023-04-25T12:59:11;7.00;;;1.90;;
4047;SDS011;2038;51.728;6.674;2023-04-25T13:01:37;3.80;;;2.13;;
4047;SDS011;2038;51.728;6.674;2023-04-25T13:04:03;4.70;;;2.13;;
4047;SDS011;2038;51.728;6.674;2023-04-25T13:06:30;3.30;;;1.87;;
4047;SDS011;2038;51.728;6.674;2023-04-25T13:08:56;2.93;;;1.40;;
4047;SDS011;2038;51.728;6.674;2023-04-25T13:11:22;3.50;;;1.90;;
4047;SDS011;2038;51.728;6.674;2023-04-25T13:13:48;4.40;;;2.13;;
4047;SDS011;2038;51.728;6.674;2023-04-25T13:16:15;2.20;;;2.00;;
4047;SDS011;2038;51.728;6.674;2023-04-25T13:18:41;5.93;;;1.53;;
4047;SDS011;2038;51.728;6.674;2023-04-25T13:21:09;4.67;;;1.70;;
4047;SDS011;2038;51.728;6.674;2023-04-25T13:23:38;6.60;;;2.07;;
4047;SDS011;2038;51.728;6.674;2023-04-25T13:26:06;3.80;;;1.60;;
4047;SDS011;2038;51.728;6.674;2023-04-25T13:28:32;7.10;;;2.40;;
4047;SDS011;2038;51.728;6.674;2023-04-25T13:30:59;3.17;;;1.60;;
4047;SDS011;2038;51.728;6.674;2023-04-25T13:33:25;4.77;;;1.70;;
4047;SDS011;2038;51.728;6.674;2023-04-25T13:35:51;6.60;;;1.93;;
4047;SDS011;2038;51.728;6.674;2023-04-25T13:38:22;4.20;;;2.20;;
4047;SDS011;2038;51.728;6.674;2023-04-25T13:40:50;2.80;;;1.70;;
4047;SDS011;2038;51.728;6.674;2023-04-25T13:43:18;8.17;;;1.93;;
4047;SDS011;2038;51.728;6.674;2023-04-25T13:45:46;5.30;;;1.73;;
4047;SDS011;2038;51.728;6.674;2023-04-25T13:48:16;3.77;;;1.70;;
4047;SDS011;2038;51.728;6.674;2023-04-25T13:50:43;8.30;;;2.30;;
4047;SDS011;2038;51.728;6.674;2023-04-25T13:53:10;10.47;;;2.30;;
4047;SDS011;2038;51.728;6.674;2023-04-25T13:55:36;8.77;;;1.93;;
4047;SDS011;2038;51.728;6.674;2023-04-25T13:58:03;15.80;;;2.20;;
4047;SDS011;2038;51.728;6.674;2023-04-25T14:00:33;4.03;;;2.23;;
4047;SDS011;2038;51.728;6.674;2023-04-25T14:03:03;3.73;;;2.30;;
4047;SDS011;2038;51.728;6.674;2023-04-25T14:05:32;4.00;;;1.60;;
4047;SDS011;2038;51.728;6.674;2023-04-25T14:08:03;6.50;;;2.40;;
4047;SDS011;2038;51.728;6.674;2023-04-25T14:10:30;4.57;;;2.03;;
4047;SDS011;2038;51.728;6.674;2023-04-25T14:12:57;6.60;;;2.30;;
4047;SDS011;2038;51.728;6.674;2023-04-25T14:15:24;3.73;;;2.50;;
4047;SDS011;2038;51.728;6.674;2023-04-25T14:17:50;5.30;;;2.27;;
4047;SDS011;2038;51.728;6.674;2023-04-25T14:20:16;11.03;;;2.10;;
4047;SDS011;2038;51.728;6.674;2023-04-25T14:22:45;8.50;;;2.20;;
4047;SDS011;2038;51.728;6.674;2023-04-25T14:25:11;8.63;;;3.83;;
4047;SDS011;2038;51.728;6.674;2023-04-25T14:27:38;3.60;;;2.00;;
4047;SDS011;2038;51.728;6.674;2023-04-25T14:30:04;5.83;;;1.90;;
4047;SDS011;2038;51.728;6.674;2023-04-25T14:32:31;9.60;;;2.63;;
4047;SDS011;2038;51.728;6.674;2023-04-25T14:34:58;8.23;;;2.20;;
4047;SDS011;2038;51.728;6.674;2023-04-25T14:37:24;3.93;;;2.80;;
4047;SDS011;2038;51.728;6.674;2023-04-25T14:39:51;3.83;;;2.43;;
4047;SDS011;2038;51.728;6.674;2023-04-25T14:42:17;7.23;;;1.67;;
4047;SDS011;2038;51.728;6.674;2023-04-25T14:44:43;5.13;;;1.87;;
4047;SDS011;2038;51.728;6.674;2023-04-25T14:47:10;5.80;;;1.73;;
4047;SDS011;2038;51.728;6.674;2023-04-25T14:49:36;3.60;;;1.97;;
4047;SDS011;2038;51.728;6.674;2023-04-25T14:52:02;6.47;;;3.10;;
4047;SDS011;2038;51.728;6.674;2023-04-25T14:54:28;2.67;;;1.60;;
4047;SDS011;2038;51.728;6.674;2023-04-25T14:56:55;1.67;;;1.57;;
4047;SDS011;2038;51.728;6.674;2023-04-25T14:59:22;2.40;;;1.90;;
4047;SDS011;2038;51.728;6.674;2023-04-25T15:01:49;17.10;;;2.70;;
4047;SDS011;2038;51.728;6.674;2023-04-25T15:04:15;6.90;;;1.90;;
4047;SDS011;2038;51.728;6.674;2023-04-25T15:06:42;3.57;;;1.40;;
4047;SDS011;2038;51.728;6.674;2023-04-25T15:09:08;4.10;;;1.80;;
4047;SDS011;2038;51.728;6.674;2023-04-25T15:11:35;5.03;;;2.00;;
4047;SDS011;2038;51.728;6.674;2023-04-25T15:14:02;5.37;;;2.20;;
4047;SDS011;2038;51.728;6.674;2023-04-25T15:16:29;4.30;;;2.10;;
4047;SDS011;2038;51.728;6.674;2023-04-25T15:18:56;4.17;;;2.10;;
4047;SDS011;2038;51.728;6.674;2023-04-25T15:21:23;4.47;;;1.87;;
4047;SDS011;2038;51.728;6.674;2023-04-25T15:23:49;5.13;;;1.63;;
4047;SDS011;2038;51.728;6.674;2023-04-25T15:26:16;5.33;;;1.90;;